MBPVMTPP

Guest
Details From MBPV - Providenciales
To MTPP - TOUSSAINT LOUVERTURE INTL
Flight Number -
Tags generated
Created
Modified
Stats Distance 196 nm / 363 km
Max Altitude 20,000 ft / 6,096 m
Waypoints 3
Social Downloads 1
Likes 0
Share VATSIM

Download

Looking for another format? Having issues loading an existing format? Contact us
Advertisement - Login to hide

Notes

Basic altitude profile: - Ascent Rate: 1200ft/min - Ascent Speed: 150kts - Cruise Altitude: 120ft - Cruise Speed: 236kts - Descent Rate: 120ft/min - Descent Speed: 150kts Options: - Use NATs: yes - Use PACOTS: yes - Use low airways: yes - Use high airways: yes

Route

MBPV NOSOX MTPP

ID Type Via Altitude Latitude Longitude Leg Dist Tot Dist Heading (true) Name
O MBPV APT - 0 ft / 0 m 21.77360˚ -72.26590˚ - 0 nm - Providenciales
NOSOX FIX - 20,000 ft / 6,096 m 20.10167˚ -72.64500˚ 102 nm 102 nm 192° / 192° -
O MTPP APT - 0 ft / 0 m 18.58005˚ -72.29254˚ 93 nm 196 nm 168° / 168° TOUSSAINT LOUVERTURE INTL

Altitude Profile

Advertisement - Login to hide

Weather


0- 5 10 15 20 25 30 35+ Temperature / ° C

Clouds and Precipitation
Forecast for 2018-06-24 18:00 UTC. Updated 5 hours ago

Ground ~20,000 ft ~40,000 ft Winds

MBPV

Details ICAO MBPV (PLS)
Name Providenciales
Region Turks and Caicos Islands
Timezone America/Grand_Turk (UTC-4.0)
Stats Elevation 15 ft / 5 m (AMSL)
Location 21.773600° -72.265900°
Runways 1
Magnetic Variation 10.646° W

METAR

MBPV 241900Z 13014KT 9999 SCT015 30/23 Q1016

Decode

TAF

Not found

Departure Runways

ID Width Length Bearing (true) Bearing (mag) Surface Threshold Offset Overrun Length
10 148 ft / 45 m 7,584 ft / 2,312 m 93.01° 103.66° Asphalt 600 ft / 183 m 200 ft / 61 m
28 148 ft / 45 m 7,584 ft / 2,312 m 273.02° 283.67° Asphalt 0 ft / 0 m 200 ft / 61 m

MTPP

Details ICAO MTPP (PAP)
Name TOUSSAINT LOUVERTURE INTL
Region Haiti
Timezone America/Port-au-Prince (UTC-4.0)
Stats Elevation 122 ft / 37 m (AMSL)
Location 18.580051° -72.292540°
Runways 1
Magnetic Variation 10.238° W

METAR

MTPP 242000Z 09012G24KT 9999 SCT026CB 31/20 Q1015 A2998 RMK/CB/SSW

Decode

TAF

TAF MTPP 241700Z 2418/2518 10020G30KT 9000 SCT026 PROB30 TEMPO 2502/2506 4500 SHRA SCT022CB BKN030 BECMG 2508/2512 VRB02KT 9000 FEW016 SCT020 BECMG 2514/2518 09012KT

Decode

Destination Runways

ID Width Length Bearing (true) Bearing (mag) Surface Threshold Offset Overrun Length
10 141 ft / 43 m 9,963 ft / 3,037 m 86.96° 97.20° Asphalt 0 ft / 0 m 0 ft / 0 m
28 141 ft / 43 m 9,963 ft / 3,037 m 266.97° 277.21° Asphalt 0 ft / 0 m 0 ft / 0 m

Approach Navaids

Runway Type Ident Frequency Range Bearing (true) Bearing (mag) Slope Elevation
10 Localiser IMG 111.50 MHz 18 nm / 33 km 87.00° 97.24° - 121 ft / 37 m (AMSL)
10 Glidescope IMG 111.50 MHz 10 nm / 19 km 73.67° 83.91° 3.00° 122 ft / 37 m (AMSL)
10 DME IMG 111.50 MHz 18 nm / 33 km - - - 121 ft / 37 m (AMSL)

Popular Alternatives